Time;durP1;ratioP1;P1;durP2;ratioP2;P2;SDS_P1;SDS_P2;PMS_P1;PMS_P2;Temp;Humidity;BMP_temperature;BMP_pressure;BME280_temperature;BME280_humidity;BME280_pressure;Samples;Min_cycle;Max_cycle;Signal;HPM_P1;HPM_P2
2023/07/21 00:00:56;;;;;;;3.83;3.22;;;18.30;99.90;;;;;;4178619;28;20057;-61
2023/07/21 00:02:58;;;;;;;6.78;3.70;;;18.30;99.90;;;;;;4179681;28;20090;-64
2023/07/21 00:04:59;;;;;;;6.68;3.70;;;18.30;99.90;;;;;;4180168;28;20081;-62
2023/07/21 00:07:00;;;;;;;6.88;4.57;;;18.30;99.90;;;;;;4178839;28;20037;-66
2023/07/21 00:09:05;;;;;;;9.45;4.32;;;18.30;99.90;;;;;;4179596;28;20964;-63
2023/07/21 00:11:07;;;;;;;9.93;4.22;;;18.20;99.90;;;;;;4160716;28;20041;-63
2023/07/21 00:13:08;;;;;;;7.43;4.30;;;18.20;99.90;;;;;;4179438;28;20044;-62
2023/07/21 00:15:10;;;;;;;7.20;4.10;;;18.20;99.90;;;;;;4178340;28;20048;-63
2023/07/21 00:17:11;;;;;;;6.25;4.30;;;18.20;99.90;;;;;;4179589;28;20106;-69
2023/07/21 00:19:12;;;;;;;6.85;3.83;;;18.20;99.90;;;;;;4178582;28;20140;-65
2023/07/21 00:21:14;;;;;;;7.22;3.83;;;18.20;99.90;;;;;;4179624;28;20053;-63
2023/07/21 00:23:17;;;;;;;6.07;3.63;;;18.20;99.90;;;;;;4179279;28;20029;-64
2023/07/21 00:25:18;;;;;;;6.93;3.38;;;18.20;99.90;;;;;;4180271;28;20079;-66
2023/07/21 00:27:19;;;;;;;7.85;3.15;;;18.20;99.90;;;;;;4177889;28;20091;-63
2023/07/21 00:29:20;;;;;;;5.00;3.40;;;18.20;99.90;;;;;;4180232;28;20033;-64
2023/07/21 00:31:22;;;;;;;6.05;3.15;;;18.20;99.90;;;;;;4179011;28;20068;-61
2023/07/21 00:33:25;;;;;;;6.15;3.55;;;18.20;99.90;;;;;;4179331;28;20095;-63
2023/07/21 00:35:26;;;;;;;5.88;3.55;;;18.10;99.90;;;;;;4179068;28;20080;-63
2023/07/21 00:37:27;;;;;;;4.68;2.90;;;18.10;99.90;;;;;;4178830;28;20411;-64
2023/07/21 00:39:28;;;;;;;4.72;2.80;;;18.00;99.90;;;;;;4179684;28;20029;-61
2023/07/21 00:41:29;;;;;;;5.15;3.58;;;17.90;99.90;;;;;;4178339;28;20059;-61
2023/07/21 00:43:31;;;;;;;5.43;3.67;;;17.80;99.90;;;;;;4178791;28;20140;-62
2023/07/21 00:45:37;;;;;;;6.60;3.10;;;17.80;99.90;;;;;;4177964;28;20087;-62
2023/07/21 00:47:39;;;;;;;4.53;2.97;;;17.80;99.90;;;;;;4179598;28;20469;-62
2023/07/21 00:49:41;;;;;;;5.78;3.10;;;17.90;99.90;;;;;;4177629;28;20033;-62
2023/07/21 00:51:44;;;;;;;3.17;2.75;;;17.90;99.90;;;;;;4179048;28;20091;-61
2023/07/21 00:53:47;;;;;;;7.78;3.75;;;17.80;99.90;;;;;;4177352;28;20048;-61
2023/07/21 00:55:48;;;;;;;4.20;3.05;;;17.80;99.90;;;;;;4178467;28;20029;-62
2023/07/21 00:57:49;;;;;;;8.40;3.22;;;17.70;99.90;;;;;;4178556;28;20487;-63
2023/07/21 00:59:51;;;;;;;5.05;3.13;;;17.70;99.90;;;;;;4177967;28;20135;-62
2023/07/21 01:01:52;;;;;;;9.20;3.22;;;17.60;99.90;;;;;;4177840;28;20091;-62
2023/07/21 01:03:53;;;;;;;4.43;2.75;;;17.70;99.90;;;;;;4179446;28;20033;-62
2023/07/21 01:05:54;;;;;;;4.82;2.95;;;17.70;99.90;;;;;;4178268;28;20427;-62
2023/07/21 01:07:56;;;;;;;6.55;3.00;;;17.70;99.90;;;;;;4160725;28;20041;-61
2023/07/21 01:09:58;;;;;;;3.58;2.90;;;17.80;99.90;;;;;;4178797;28;20025;-62
2023/07/21 01:11:59;;;;;;;5.63;2.88;;;17.80;99.90;;;;;;4178363;28;20037;-61
2023/07/21 01:14:04;;;;;;;4.45;2.80;;;17.80;99.90;;;;;;4178519;28;20106;-62
2023/07/21 01:16:05;;;;;;;6.85;3.00;;;17.80;99.90;;;;;;4160475;28;20045;-62
2023/07/21 01:18:08;;;;;;;4.82;3.00;;;17.70;99.90;;;;;;4178467;28;20122;-63
2023/07/21 01:20:14;;;;;;;5.65;3.50;;;17.60;99.90;;;;;;4176890;28;20057;-62
2023/07/21 01:22:36;;;;;;;4.75;2.65;;;17.50;99.90;;;;;;4178856;28;20079;-62
2023/07/21 01:24:46;;;;;;;5.72;3.13;;;17.50;99.90;;;;;;4178008;28;20033;-62
2023/07/21 01:26:48;;;;;;;6.88;3.35;;;17.40;99.90;;;;;;4178095;28;20459;-61
2023/07/21 01:28:49;;;;;;;4.32;3.42;;;17.40;99.90;;;;;;4177883;28;20497;-63
2023/07/21 01:30:53;;;;;;;6.45;3.88;;;17.40;99.90;;;;;;4179034;28;20379;-62
2023/07/21 01:32:55;;;;;;;6.75;3.10;;;17.20;99.90;;;;;;4176713;28;20037;-63
2023/07/21 01:34:57;;;;;;;5.82;3.80;;;17.00;99.90;;;;;;4178412;28;20037;-63
2023/07/21 01:37:00;;;;;;;5.68;4.28;;;16.90;99.90;;;;;;4177566;28;20025;-64
2023/07/21 01:39:03;;;;;;;8.32;4.20;;;16.80;99.90;;;;;;4178319;28;20075;-62
2023/07/21 01:41:06;;;;;;;10.18;4.00;;;16.80;99.90;;;;;;4177621;28;20067;-62
2023/07/21 01:43:08;;;;;;;6.55;3.78;;;16.70;99.90;;;;;;4179314;28;20032;-61
2023/07/21 01:45:10;;;;;;;6.70;3.67;;;16.70;99.90;;;;;;4177246;28;20469;-65
2023/07/21 01:47:11;;;;;;;5.13;3.33;;;16.60;99.90;;;;;;4161056;28;20045;-64
2023/07/21 01:49:12;;;;;;;6.00;3.67;;;16.60;99.90;;;;;;4159734;28;20080;-65
2023/07/21 01:51:19;;;;;;;8.60;3.85;;;16.60;99.90;;;;;;4178422;28;20041;-63
2023/07/21 01:53:26;;;;;;;5.15;3.55;;;16.60;99.90;;;;;;4177881;28;20049;-62
2023/07/21 01:56:04;;;;;;;6.15;3.78;;;16.60;99.90;;;;;;4176907;28;20049;-63
2023/07/21 01:58:08;;;;;;;5.78;3.50;;;16.60;99.90;;;;;;4161313;28;20095;-63
2023/07/21 02:00:10;;;;;;;8.55;4.30;;;16.50;99.90;;;;;;4166065;28;20037;-62
2023/07/21 02:02:13;;;;;;;10.25;4.45;;;16.50;99.90;;;;;;4177537;28;20453;-62
2023/07/21 02:04:16;;;;;;;7.75;4.50;;;16.40;99.90;;;;;;4178152;28;20526;-61
2023/07/21 02:06:17;;;;;;;9.23;4.80;;;16.30;99.90;;;;;;4177641;28;20075;-62
2023/07/21 02:08:20;;;;;;;8.82;5.28;;;16.40;99.90;;;;;;4175660;28;20033;-62
2023/07/21 02:10:22;;;;;;;7.53;5.97;;;16.30;99.90;;;;;;4177852;28;20029;-62
2023/07/21 02:12:23;;;;;;;7.72;6.40;;;16.20;99.90;;;;;;4177424;28;20071;-63
2023/07/21 02:14:24;;;;;;;11.70;8.70;;;16.10;99.90;;;;;;4178293;28;20022;-62
2023/07/21 02:16:26;;;;;;;17.23;9.38;;;16.10;99.90;;;;;;4176886;28;20127;-62
2023/07/21 02:18:27;;;;;;;14.85;9.73;;;16.00;99.90;;;;;;4159783;28;20045;-62
2023/07/21 02:20:28;;;;;;;15.05;9.27;;;16.00;99.90;;;;;;4176986;28;20099;-62
2023/07/21 02:22:29;;;;;;;13.32;8.65;;;16.00;99.90;;;;;;4178534;28;20078;-61
2023/07/21 02:24:30;;;;;;;8.57;7.68;;;16.00;99.90;;;;;;4176703;28;20117;-62
2023/07/21 02:26:32;;;;;;;9.13;7.68;;;15.90;99.90;;;;;;4177915;28;20087;-62
2023/07/21 02:28:33;;;;;;;14.27;7.25;;;15.90;99.90;;;;;;4177237;28;20021;-62
2023/07/21 02:30:35;;;;;;;12.05;8.57;;;15.90;99.90;;;;;;4177765;28;20090;-63
2023/07/21 02:32:36;;;;;;;13.93;7.65;;;16.00;99.90;;;;;;4176956;28;20431;-63
2023/07/21 02:34:39;;;;;;;13.07;9.25;;;16.00;99.90;;;;;;4177861;28;20094;-62
2023/07/21 02:36:40;;;;;;;15.93;10.27;;;16.10;99.90;;;;;;4159235;28;20080;-62
2023/07/21 02:38:41;;;;;;;13.23;10.23;;;16.00;99.90;;;;;;4176944;28;20461;-63
2023/07/21 02:40:42;;;;;;;13.82;9.93;;;15.90;99.90;;;;;;4177197;28;20045;-61
2023/07/21 02:42:43;;;;;;;16.38;11.50;;;15.90;99.90;;;;;;4177068;28;20116;-62
2023/07/21 02:44:45;;;;;;;19.30;11.60;;;15.80;99.90;;;;;;4176830;28;20067;-62
2023/07/21 02:46:46;;;;;;;14.57;9.52;;;15.80;99.90;;;;;;4177107;28;20083;-62
2023/07/21 02:48:47;;;;;;;12.95;9.55;;;15.80;99.90;;;;;;4177659;28;20087;-63
2023/07/21 02:50:51;;;;;;;15.52;10.80;;;15.80;99.90;;;;;;4176536;28;20087;-64
2023/07/21 02:52:52;;;;;;;18.83;13.43;;;15.80;99.90;;;;;;4177992;28;20025;-63
2023/07/21 02:54:54;;;;;;;15.82;10.85;;;15.70;99.90;;;;;;4176601;28;20037;-62
2023/07/21 02:56:55;;;;;;;19.23;10.73;;;15.70;99.90;;;;;;4177680;28;20454;-63
2023/07/21 02:58:57;;;;;;;15.57;10.02;;;15.60;99.90;;;;;;4158574;28;20466;-61
2023/07/21 03:00:59;;;;;;;12.02;9.38;;;15.60;99.90;;;;;;4177265;28;20111;-62
2023/07/21 03:03:01;;;;;;;15.70;9.48;;;15.60;99.90;;;;;;4176579;28;20021;-62
2023/07/21 03:05:05;;;;;;;9.38;7.70;;;15.50;99.90;;;;;;4176775;28;20029;-62
2023/07/21 03:07:06;;;;;;;29.65;8.57;;;15.40;99.90;;;;;;4175843;28;20037;-64
2023/07/21 03:09:07;;;;;;;48.58;9.07;;;15.30;99.90;;;;;;4177113;28;20135;-62
2023/07/21 03:11:11;;;;;;;74.32;10.65;;;15.20;99.90;;;;;;4176543;28;20074;-62
2023/07/21 03:13:13;;;;;;;23.60;9.27;;;15.20;99.90;;;;;;4176836;28;20033;-62
2023/07/21 03:15:15;;;;;;;30.67;10.13;;;15.10;99.90;;;;;;4176939;28;20024;-61
2023/07/21 03:17:16;;;;;;;22.80;9.60;;;15.10;99.90;;;;;;4175030;28;20091;-61
2023/07/21 03:19:17;;;;;;;14.18;9.60;;;15.20;99.90;;;;;;4176668;28;20090;-61
2023/07/21 03:21:18;;;;;;;21.13;9.55;;;15.20;99.90;;;;;;4175913;28;20124;-62
2023/07/21 03:23:19;;;;;;;50.30;10.95;;;15.20;99.90;;;;;;4177215;28;20070;-62
2023/07/21 03:25:20;;;;;;;45.65;10.40;;;15.20;99.90;;;;;;4175112;28;20040;-63
2023/07/21 03:27:21;;;;;;;23.27;10.35;;;15.20;99.90;;;;;;4177072;28;20054;-62
2023/07/21 03:29:22;;;;;;;23.20;10.00;;;15.20;99.90;;;;;;4175841;28;20487;-62
2023/07/21 03:31:24;;;;;;;16.63;9.50;;;15.30;99.90;;;;;;4176849;28;20048;-62
2023/07/21 03:33:25;;;;;;;14.23;7.93;;;15.40;99.90;;;;;;4175527;28;20082;-62
2023/07/21 03:35:26;;;;;;;15.23;8.32;;;15.60;99.90;;;;;;4174750;28;20107;-63
2023/07/21 03:37:27;;;;;;;10.60;7.80;;;16.00;99.90;;;;;;4176526;28;20041;-62
2023/07/21 03:39:28;;;;;;;13.45;7.80;;;16.30;99.90;;;;;;4176690;28;20075;-63
2023/07/21 03:41:30;;;;;;;14.60;7.45;;;16.60;99.90;;;;;;4170976;28;20378;-62
2023/07/21 03:43:32;;;;;;;13.57;7.00;;;16.90;99.90;;;;;;4171835;28;20099;-63
2023/07/21 03:45:33;;;;;;;10.35;6.85;;;17.30;99.90;;;;;;4176704;28;20560;-63
2023/07/21 03:47:35;;;;;;;11.95;5.70;;;17.90;99.90;;;;;;4175683;28;20102;-62
2023/07/21 03:49:36;;;;;;;9.32;5.80;;;18.30;99.90;;;;;;4177016;28;20091;-62
2023/07/21 03:51:39;;;;;;;10.05;6.45;;;18.80;99.90;;;;;;4175575;28;20037;-62
2023/07/21 03:53:40;;;;;;;9.50;6.32;;;19.30;99.90;;;;;;4177040;28;20025;-63
2023/07/21 03:55:43;;;;;;;8.25;5.07;;;19.70;99.90;;;;;;4176158;28;20075;-65
2023/07/21 03:57:44;;;;;;;10.60;5.05;;;20.20;99.90;;;;;;4176474;28;20048;-64
2023/07/21 03:59:46;;;;;;;11.27;5.53;;;20.50;99.90;;;;;;4174867;28;20037;-62
2023/07/21 04:01:47;;;;;;;8.95;4.93;;;21.00;99.90;;;;;;4176143;28;20045;-64
2023/07/21 04:03:48;;;;;;;7.15;4.47;;;21.30;99.90;;;;;;4175369;28;20033;-63
2023/07/21 04:05:50;;;;;;;9.98;4.75;;;21.70;99.90;;;;;;4176793;28;20443;-62
2023/07/21 04:07:51;;;;;;;10.05;4.78;;;22.00;99.90;;;;;;4175645;28;20029;-63
2023/07/21 04:09:54;;;;;;;8.25;4.22;;;22.30;99.90;;;;;;4176486;28;20091;-63
2023/07/21 04:11:55;;;;;;;8.00;4.65;;;22.50;99.90;;;;;;4175777;28;20025;-64
2023/07/21 04:13:59;;;;;;;7.90;3.50;;;22.80;99.90;;;;;;4176398;28;20029;-63
2023/07/21 04:16:00;;;;;;;7.85;3.83;;;23.00;99.90;;;;;;4175177;28;20024;-62
2023/07/21 04:18:02;;;;;;;6.55;3.72;;;23.40;99.90;;;;;;4174727;28;20095;-61
2023/07/21 04:20:04;;;;;;;6.68;4.00;;;23.60;99.90;;;;;;4176437;28;20388;-62
2023/07/21 04:22:05;;;;;;;10.02;3.90;;;23.90;99.90;;;;;;4154441;28;20163;-63
2023/07/21 04:24:06;;;;;;;8.02;4.32;;;24.00;99.90;;;;;;4160482;28;20079;-62
2023/07/21 04:26:08;;;;;;;6.35;3.80;;;23.80;99.90;;;;;;4169674;28;20067;-63
2023/07/21 04:28:10;;;;;;;6.53;4.28;;;23.70;99.90;;;;;;4176409;28;20049;-62
2023/07/21 04:30:13;;;;;;;8.05;3.80;;;23.60;99.90;;;;;;4175377;28;20424;-63
2023/07/21 04:32:14;;;;;;;10.18;4.85;;;23.80;99.90;;;;;;4177440;28;20122;-63
2023/07/21 04:34:16;;;;;;;11.77;4.72;;;24.30;99.90;;;;;;4178256;28;20070;-63
2023/07/21 04:36:17;;;;;;;8.23;5.25;;;24.10;99.90;;;;;;4180316;28;20036;-64
2023/07/21 04:38:18;;;;;;;7.80;4.88;;;24.10;99.90;;;;;;4178908;28;20098;-63
2023/07/21 04:40:20;;;;;;;14.07;5.10;;;23.90;99.90;;;;;;4180257;28;20495;-63
2023/07/21 04:42:21;;;;;;;12.50;5.45;;;23.70;99.90;;;;;;4178622;28;20057;-63
2023/07/21 04:44:22;;;;;;;11.38;5.35;;;23.50;99.90;;;;;;4178318;28;20495;-65
2023/07/21 04:46:23;;;;;;;16.08;5.90;;;22.90;99.90;;;;;;4178685;28;20025;-64
2023/07/21 04:48:24;;;;;;;9.05;5.70;;;22.90;99.90;;;;;;4177889;28;20422;-65
2023/07/21 04:50:25;;;;;;;18.25;5.40;;;23.10;99.90;;;;;;4178771;28;20797;-62
2023/07/21 04:52:26;;;;;;;12.65;5.05;;;23.30;99.90;;;;;;4177712;28;20106;-63
2023/07/21 04:54:27;;;;;;;15.27;5.45;;;23.30;99.90;;;;;;4161729;28;20444;-62
2023/07/21 04:56:29;;;;;;;10.27;5.25;;;23.50;99.90;;;;;;4176610;28;20458;-62
2023/07/21 04:58:30;;;;;;;10.18;5.32;;;23.60;99.90;;;;;;4179208;28;20515;-62
2023/07/21 05:00:34;;;;;;;19.52;6.25;;;23.80;99.90;;;;;;4178546;28;20104;-62
2023/07/21 05:02:35;;;;;;;16.58;4.70;;;23.90;99.90;;;;;;4179475;28;20351;-62
2023/07/21 05:04:37;;;;;;;10.10;4.85;;;24.10;99.90;;;;;;4178393;28;20099;-63
2023/07/21 05:06:38;;;;;;;17.80;5.15;;;23.90;99.90;;;;;;4178773;28;20103;-67
2023/07/21 05:08:39;;;;;;;14.18;5.18;;;23.50;99.90;;;;;;4178379;28;20075;-63
2023/07/21 05:10:40;;;;;;;22.52;7.60;;;23.20;99.90;;;;;;4179297;28;20147;-62
2023/07/21 05:12:43;;;;;;;15.95;6.47;;;23.30;99.90;;;;;;4178100;28;20025;-63
2023/07/21 05:14:44;;;;;;;16.17;5.70;;;23.50;99.90;;;;;;4160770;28;20092;-64
2023/07/21 05:16:45;;;;;;;14.63;6.55;;;23.40;99.90;;;;;;4178438;28;20059;-62
2023/07/21 05:18:46;;;;;;;11.73;6.43;;;23.20;99.90;;;;;;4178635;28;20033;-62
2023/07/21 05:20:48;;;;;;;13.98;6.40;;;23.40;99.90;;;;;;4178322;28;20040;-63
2023/07/21 05:22:49;;;;;;;15.52;5.55;;;23.10;99.90;;;;;;4178383;28;20538;-64
2023/07/21 05:24:51;;;;;;;17.80;6.50;;;23.20;99.90;;;;;;4178806;28;20029;-62
2023/07/21 05:26:52;;;;;;;12.35;5.90;;;23.20;99.90;;;;;;4177467;28;20485;-62
2023/07/21 05:28:55;;;;;;;10.75;5.25;;;22.90;99.90;;;;;;4160676;28;20216;-63
2023/07/21 05:30:56;;;;;;;11.20;5.40;;;22.90;99.90;;;;;;4177736;28;20059;-62
2023/07/21 05:32:57;;;;;;;10.38;5.40;;;23.00;99.90;;;;;;4179045;28;20021;-62
2023/07/21 05:34:59;;;;;;;13.90;5.65;;;23.00;99.90;;;;;;4177752;28;20075;-62
2023/07/21 05:37:01;;;;;;;14.10;5.05;;;23.30;99.90;;;;;;4178976;28;20063;-61
2023/07/21 05:39:02;;;;;;;13.60;4.93;;;22.90;99.90;;;;;;4159371;28;20034;-62
2023/07/21 05:41:05;;;;;;;12.75;5.35;;;22.90;99.90;;;;;;4178451;28;20098;-67
2023/07/21 05:43:06;;;;;;;11.05;4.88;;;23.00;99.90;;;;;;4177425;28;20029;-62
2023/07/21 05:45:09;;;;;;;20.55;5.80;;;23.10;99.90;;;;;;4178635;28;20033;-62
2023/07/21 05:47:10;;;;;;;10.88;4.57;;;23.40;99.90;;;;;;4177599;28;20098;-62
2023/07/21 05:49:11;;;;;;;11.13;4.80;;;23.90;99.90;;;;;;4178322;28;20025;-63
2023/07/21 05:51:13;;;;;;;17.05;5.30;;;24.30;99.90;;;;;;4177741;28;20036;-62
2023/07/21 05:53:14;;;;;;;12.85;4.18;;;24.60;99.90;;;;;;4177803;28;20037;-62
2023/07/21 05:55:15;;;;;;;12.82;5.10;;;25.00;99.90;;;;;;4177863;28;20041;-62
2023/07/21 05:57:16;;;;;;;11.18;4.43;;;25.00;99.90;;;;;;4176324;28;20037;-62
2023/07/21 05:59:17;;;;;;;11.48;4.38;;;25.20;99.90;;;;;;4178268;28;20029;-62
2023/07/21 06:01:18;;;;;;;14.10;5.75;;;25.20;99.90;;;;;;4176343;28;20041;-62
2023/07/21 06:03:19;;;;;;;12.75;4.78;;;25.20;99.90;;;;;;4177787;28;20086;-63
2023/07/21 06:05:21;;;;;;;10.52;4.57;;;25.50;99.90;;;;;;4175886;28;20110;-62
2023/07/21 06:07:22;;;;;;;17.25;5.32;;;25.20;99.90;;;;;;4178163;28;20090;-63
2023/07/21 06:09:23;;;;;;;12.30;5.22;;;24.80;99.90;;;;;;4176472;28;20504;-62
2023/07/21 06:11:26;;;;;;;9.57;3.85;;;24.40;99.90;;;;;;4178566;28;20037;-64
2023/07/21 06:13:30;;;;;;;11.38;4.40;;;24.60;99.90;;;;;;4177097;28;20028;-63
2023/07/21 06:15:31;;;;;;;8.45;4.28;;;24.60;99.90;;;;;;4177415;28;20170;-63
2023/07/21 06:17:32;;;;;;;6.53;4.00;;;24.30;99.90;;;;;;4177328;28;20090;-64
2023/07/21 06:19:34;;;;;;;9.68;3.42;;;24.10;99.90;;;;;;4159163;28;20076;-62
2023/07/21 06:21:36;;;;;;;7.10;3.17;;;23.90;99.90;;;;;;4176145;28;20052;-62
2023/07/21 06:23:37;;;;;;;11.90;3.72;;;23.60;99.90;;;;;;4177467;28;20033;-62
2023/07/21 06:25:38;;;;;;;6.18;3.08;;;23.30;99.90;;;;;;4177705;28;20473;-62
2023/07/21 06:27:39;;;;;;;4.85;3.35;;;23.00;99.90;;;;;;4177084;28;20078;-62
2023/07/21 06:29:40;;;;;;;7.60;3.53;;;22.80;99.90;;;;;;4178148;28;20427;-61
2023/07/21 06:31:41;;;;;;;11.02;3.95;;;22.70;99.90;;;;;;4159167;28;20525;-63
2023/07/21 06:33:43;;;;;;;6.15;3.40;;;22.60;99.90;;;;;;4177105;28;20501;-62
2023/07/21 06:35:44;;;;;;;11.55;4.22;;;22.30;99.90;;;;;;4176639;28;20052;-62
2023/07/21 06:37:45;;;;;;;6.85;3.58;;;22.10;99.90;;;;;;4177248;28;20195;-62
2023/07/21 06:39:48;;;;;;;8.52;3.53;;;22.00;99.90;;;;;;4176560;28;20414;-61
2023/07/21 06:41:51;;;;;;;10.98;3.72;;;22.00;99.90;;;;;;4177836;28;20072;-60
2023/07/21 06:43:52;;;;;;;8.85;4.05;;;22.10;99.90;;;;;;4176129;28;20053;-61
2023/07/21 06:45:53;;;;;;;7.97;4.07;;;22.10;99.90;;;;;;4177885;28;20075;-61
2023/07/21 06:47:54;;;;;;;6.90;3.30;;;22.10;99.90;;;;;;4176763;28;20445;-61
2023/07/21 06:49:55;;;;;;;9.50;4.00;;;21.90;99.90;;;;;;4176605;28;20029;-61
2023/07/21 06:51:57;;;;;;;12.18;4.35;;;21.60;99.90;;;;;;4176208;28;20055;-62
2023/07/21 06:53:58;;;;;;;5.32;3.75;;;21.70;99.90;;;;;;4176141;28;20098;-61
2023/07/21 06:55:59;;;;;;;7.55;4.00;;;21.70;99.90;;;;;;4175943;28;20103;-63
2023/07/21 06:58:01;;;;;;;8.23;3.28;;;21.90;99.90;;;;;;4176586;28;20090;-62
2023/07/21 07:00:03;;;;;;;7.70;4.32;;;22.10;99.90;;;;;;4177589;28;20033;-62
2023/07/21 07:02:04;;;;;;;5.28;4.00;;;22.30;99.90;;;;;;4176452;28;20115;-61
2023/07/21 07:04:05;;;;;;;3.97;3.53;;;22.40;99.90;;;;;;4177532;28;20025;-61
2023/07/21 07:06:07;;;;;;;5.88;3.63;;;22.50;99.90;;;;;;4176225;28;20033;-62
2023/07/21 07:08:10;;;;;;;3.95;3.00;;;22.70;99.90;;;;;;4176969;28;20037;-63
2023/07/21 07:10:11;;;;;;;7.10;4.07;;;22.70;99.90;;;;;;4175864;28;20103;-61
2023/07/21 07:12:12;;;;;;;5.60;3.55;;;22.70;99.90;;;;;;4177412;28;20377;-62
2023/07/21 07:14:13;;;;;;;3.53;3.03;;;22.90;99.90;;;;;;4176351;28;20033;-63
2023/07/21 07:16:14;;;;;;;8.30;4.90;;;22.90;99.90;;;;;;4176686;28;20040;-61
2023/07/21 07:18:16;;;;;;;5.13;4.38;;;23.00;99.90;;;;;;4176197;28;20078;-63
2023/07/21 07:20:17;;;;;;;7.53;3.70;;;23.00;99.90;;;;;;4176761;28;20420;-62
2023/07/21 07:22:18;;;;;;;4.82;3.90;;;23.00;99.90;;;;;;4176344;28;20084;-62
2023/07/21 07:24:20;;;;;;;9.75;3.83;;;23.10;99.90;;;;;;4176611;28;20021;-64
2023/07/21 07:26:21;;;;;;;5.75;4.03;;;23.20;99.90;;;;;;4176667;28;20017;-64
2023/07/21 07:28:22;;;;;;;9.05;4.75;;;23.20;99.90;;;;;;4175883;28;20079;-61
2023/07/21 07:30:24;;;;;;;5.78;4.50;;;23.20;99.90;;;;;;4177075;28;20420;-65
2023/07/21 07:32:25;;;;;;;4.20;3.80;;;23.20;99.90;;;;;;4175356;28;20805;-62
2023/07/21 07:34:26;;;;;;;5.50;3.58;;;23.20;99.90;;;;;;4176427;28;20095;-62
2023/07/21 07:36:27;;;;;;;6.32;4.50;;;23.10;99.90;;;;;;4175953;28;20110;-61
2023/07/21 07:38:30;;;;;;;5.03;3.63;;;23.10;99.90;;;;;;4159841;28;20025;-61
2023/07/21 07:40:32;;;;;;;7.10;3.60;;;23.00;99.90;;;;;;4176061;28;20025;-61
2023/07/21 07:42:33;;;;;;;5.28;3.45;;;23.00;99.90;;;;;;4177061;28;20033;-63
2023/07/21 07:44:35;;;;;;;4.32;3.50;;;23.20;99.90;;;;;;4175262;28;20033;-61
2023/07/21 07:46:36;;;;;;;5.32;3.53;;;23.20;99.90;;;;;;4176448;28;20048;-61
2023/07/21 07:48:37;;;;;;;3.88;3.45;;;23.00;99.90;;;;;;4157764;28;20115;-62
2023/07/21 07:50:39;;;;;;;5.55;3.28;;;23.10;99.90;;;;;;4176693;28;20021;-61
2023/07/21 07:52:42;;;;;;;4.22;3.35;;;23.20;99.90;;;;;;4176300;28;20530;-61
2023/07/21 07:54:44;;;;;;;4.93;3.10;;;23.30;99.90;;;;;;4175412;28;20574;-61
2023/07/21 07:56:47;;;;;;;6.22;3.58;;;23.10;99.90;;;;;;4175841;28;20041;-63
2023/07/21 07:58:49;;;;;;;5.13;3.33;;;23.00;99.90;;;;;;4175667;28;20071;-62
2023/07/21 08:00:58;;;;;;;6.57;3.85;;;23.10;99.90;;;;;;4176411;28;20423;-63
2023/07/21 08:02:59;;;;;;;4.35;3.10;;;23.10;99.90;;;;;;4175952;28;20029;-62
2023/07/21 08:05:01;;;;;;;4.57;2.80;;;23.20;99.90;;;;;;4175658;28;20106;-62
2023/07/21 08:07:02;;;;;;;3.17;2.88;;;23.30;99.90;;;;;;4177982;28;20033;-60
2023/07/21 08:09:03;;;;;;;4.57;2.78;;;23.30;99.90;;;;;;4162254;28;20041;-61
2023/07/21 08:11:08;;;;;;;6.25;3.30;;;23.60;99.90;;;;;;4179114;28;20086;-68
2023/07/21 08:13:09;;;;;;;4.68;2.40;;;23.60;99.90;;;;;;4180159;28;20024;-64
2023/07/21 08:15:11;;;;;;;5.22;2.90;;;23.60;99.90;;;;;;4177966;28;20041;-62
2023/07/21 08:17:12;;;;;;;4.10;3.03;;;23.70;99.90;;;;;;4179228;28;20497;-62
2023/07/21 08:19:13;;;;;;;3.83;2.60;;;23.80;99.90;;;;;;4178873;28;20028;-61
2023/07/21 08:21:22;;;;;;;4.35;2.88;;;23.90;99.90;;;;;;4179567;28;20859;-62
2023/07/21 08:23:24;;;;;;;4.15;3.20;;;24.10;99.90;;;;;;4177767;28;20476;-63
2023/07/21 08:25:26;;;;;;;3.03;2.70;;;24.00;99.90;;;;;;4180179;28;20098;-63
2023/07/21 08:27:27;;;;;;;3.55;2.55;;;24.20;99.90;;;;;;4160250;28;20037;-62
2023/07/21 08:29:29;;;;;;;6.95;3.10;;;24.30;99.90;;;;;;4179268;28;20082;-62
2023/07/21 08:31:30;;;;;;;3.75;2.75;;;24.30;99.90;;;;;;4178833;28;20146;-62
2023/07/21 08:33:31;;;;;;;5.03;2.90;;;24.20;99.90;;;;;;4179110;28;20033;-61
2023/07/21 08:35:33;;;;;;;4.60;2.70;;;24.30;99.90;;;;;;4160913;28;20037;-63
2023/07/21 08:37:34;;;;;;;6.90;2.67;;;24.30;99.90;;;;;;4160523;28;20042;-66
2023/07/21 08:39:35;;;;;;;4.28;2.97;;;24.20;99.90;;;;;;4179700;28;20319;-64
2023/07/21 08:41:45;;;;;;;6.97;3.10;;;24.50;99.90;;;;;;4177589;28;20033;-62
2023/07/21 08:43:50;;;;;;;5.93;3.30;;;24.50;99.90;;;;;;4179523;28;20469;-68
2023/07/21 08:45:52;;;;;;;6.13;2.97;;;24.60;99.90;;;;;;4177641;28;20048;-62
2023/07/21 08:47:53;;;;;;;5.38;3.17;;;24.80;99.90;;;;;;4179819;28;20079;-62
2023/07/21 08:49:54;;;;;;;4.68;3.33;;;24.90;99.90;;;;;;4178363;28;20025;-66
2023/07/21 08:51:55;;;;;;;5.00;2.88;;;24.90;99.90;;;;;;4178647;28;20083;-63
2023/07/21 08:53:56;;;;;;;6.40;3.17;;;24.90;99.90;;;;;;4178421;28;20097;-62
2023/07/21 08:56:00;;;;;;;3.58;2.97;;;25.00;99.90;;;;;;4178770;28;20044;-64
2023/07/21 08:58:01;;;;;;;5.65;2.88;;;25.10;99.90;;;;;;4177488;28;20033;-62
2023/07/21 09:00:04;;;;;;;4.82;3.08;;;25.10;99.90;;;;;;4179384;28;20078;-62
2023/07/21 09:02:05;;;;;;;5.35;3.20;;;25.20;99.90;;;;;;4178076;28;20095;-62
2023/07/21 09:04:23;;;;;;;4.90;3.08;;;25.20;99.90;;;;;;4179122;28;20029;-62
2023/07/21 09:06:25;;;;;;;8.07;3.75;;;25.30;99.90;;;;;;4177819;28;20436;-62
2023/07/21 09:08:28;;;;;;;3.58;2.80;;;25.30;99.90;;;;;;4179026;28;20040;-62
2023/07/21 09:10:35;;;;;;;5.38;3.10;;;25.40;99.90;;;;;;4178046;28;20029;-62
2023/07/21 09:12:37;;;;;;;3.35;2.80;;;25.40;99.90;;;;;;4178037;28;20483;-62
2023/07/21 09:14:43;;;;;;;7.28;2.92;;;25.40;99.90;;;;;;4178544;28;20354;-61
2023/07/21 09:16:44;;;;;;;9.48;3.22;;;25.30;99.90;;;;;;4177954;28;20084;-62
2023/07/21 09:18:46;;;;;;;4.93;3.35;;;25.20;99.90;;;;;;4178249;28;20099;-61
2023/07/21 09:20:49;;;;;;;4.95;3.03;;;25.40;99.90;;;;;;4177819;28;20041;-62
2023/07/21 09:22:50;;;;;;;4.53;2.60;;;25.30;99.90;;;;;;4178093;28;20477;-62
2023/07/21 09:24:51;;;;;;;4.18;3.28;;;25.40;99.90;;;;;;4178028;28;20029;-61
2023/07/21 09:27:13;;;;;;;4.25;3.03;;;25.40;99.90;;;;;;4178001;28;20110;-61
2023/07/21 09:29:21;;;;;;;3.10;2.80;;;25.60;99.90;;;;;;4159723;28;20041;-63
2023/07/21 09:31:32;;;;;;;5.28;2.67;;;25.60;99.90;;;;;;4178807;28;20063;-62
2023/07/21 09:33:40;;;;;;;4.22;3.17;;;25.60;99.90;;;;;;4177681;28;20074;-62
2023/07/21 09:35:41;;;;;;;6.70;2.92;;;25.80;99.90;;;;;;4177961;28;20045;-62
2023/07/21 09:37:42;;;;;;;6.80;2.42;;;25.90;99.90;;;;;;4159550;28;20033;-62
2023/07/21 09:39:44;;;;;;;4.97;2.63;;;25.90;99.90;;;;;;4179104;28;20147;-61
2023/07/21 09:41:46;;;;;;;3.20;2.15;;;25.80;99.90;;;;;;4177568;28;20025;-63
2023/07/21 09:43:47;;;;;;;4.65;2.25;;;26.10;99.90;;;;;;4177883;28;20037;-62
2023/07/21 09:45:49;;;;;;;2.42;2.13;;;26.20;99.90;;;;;;4176887;28;20377;-61
2023/07/21 09:47:50;;;;;;;4.00;2.17;;;26.40;99.90;;;;;;4178355;28;20033;-61
2023/07/21 09:49:53;;;;;;;2.78;1.92;;;26.40;99.90;;;;;;4176643;28;20550;-61
2023/07/21 09:51:56;;;;;;;2.97;2.22;;;26.50;99.90;;;;;;4177769;28;20074;-61
2023/07/21 09:54:02;;;;;;;4.43;1.85;;;26.50;99.90;;;;;;4176636;28;20040;-61
2023/07/21 09:56:04;;;;;;;2.75;1.80;;;26.50;99.90;;;;;;4178508;28;20384;-63
2023/07/21 09:58:09;;;;;;;4.28;2.05;;;26.80;99.90;;;;;;4177588;28;20083;-67
2023/07/21 10:00:13;;;;;;;7.22;2.05;;;26.90;99.90;;;;;;4159641;28;20095;-64
2023/07/21 10:02:15;;;;;;;2.33;2.13;;;27.00;99.90;;;;;;4177434;28;20049;-63
2023/07/21 10:04:18;;;;;;;4.40;2.08;;;26.90;99.90;;;;;;4176809;28;20091;-62
2023/07/21 10:06:22;;;;;;;2.28;2.05;;;26.90;99.90;;;;;;4177693;28;20097;-61
2023/07/21 10:08:27;;;;;;;3.38;2.22;;;26.80;99.90;;;;;;4177656;28;20025;-62
2023/07/21 10:10:28;;;;;;;4.40;2.13;;;26.70;99.90;;;;;;4178012;28;20021;-62
2023/07/21 10:12:42;;;;;;;5.50;2.15;;;26.70;99.90;;;;;;4176423;28;20048;-62
2023/07/21 10:14:47;;;;;;;2.65;2.03;;;26.80;99.90;;;;;;4178134;28;20040;-63
2023/07/21 10:16:48;;;;;;;4.10;2.15;;;26.80;99.90;;;;;;4177023;28;20102;-61
2023/07/21 10:19:06;;;;;;;4.38;2.22;;;26.90;99.90;;;;;;4177747;28;20070;-61
2023/07/21 10:21:08;;;;;;;3.83;2.20;;;26.90;99.90;;;;;;4174477;28;20048;-63
2023/07/21 10:23:13;;;;;;;3.33;1.83;;;27.10;99.90;;;;;;4177291;28;20789;-61
2023/07/21 10:25:14;;;;;;;5.95;1.92;;;27.30;99.90;;;;;;4176724;28;20365;-61
2023/07/21 10:27:21;;;;;;;3.75;1.65;;;27.40;99.90;;;;;;4178215;28;20079;-61
2023/07/21 10:29:22;;;;;;;2.88;1.80;;;27.60;99.90;;;;;;4175861;28;20033;-61
2023/07/21 10:31:26;;;;;;;5.43;1.63;;;27.60;99.90;;;;;;4177682;28;20162;-61
2023/07/21 10:33:29;;;;;;;3.88;2.00;;;27.60;99.90;;;;;;4176851;28;20366;-63